Archimedes — PI2107 — position and weather

sailwx.info

Track history (hours):
 
Tides and Currents Weather Stations Pressure Air Temp Water Temp Dewpoint Dewpoint Depression Visibility Wind Speed Wind Dir Waves Ship Positions

Archimedes

Last reported at 2018-Jun-25 13:58 UTC. Time now 2018-Jun-25 14:15 UTC.
Position N 48°01' W 005°01'.

Length 12 m; draft 2.6 m.

Type: Ship. MMSI: 244690005.

Date/timePositionNaut miles runAvg speedWind from/ knotsBaromVisibWave heightAir tempDewpointWater temp
2018-Jun-25 13:58N 48°01' W 005°01'7 5.4
2018-Jun-25 12:44N 48°06' W 004°55'3 5.2
2018-Jun-25 12:08N 48°08' W 004°52'1 4.7
2018-Jun-25 11:58N 48°09' W 004°51'2 4.7
2018-Jun-25 11:31N 48°11' W 004°49'2 4.9
2018-Jun-25 11:01N 48°12' W 004°47'2 4.9
2018-Jun-25 10:31N 48°14' W 004°44'3 5.0
2018-Jun-25 10:00N 48°15' W 004°41'2 4.3
2018-Jun-25 09:31N 48°17' W 004°39'2 4.3
2018-Jun-25 09:01N 48°17' W 004°35'0 0.8
2018-Jun-25 08:27N 48°17' W 004°35'0 0.0
2018-Jun-25 08:00N 48°17' W 004°35'0 0.0
2018-Jun-25 07:30N 48°17' W 004°35'0 0.0
2018-Jun-25 07:01N 48°17' W 004°35'0 0.0
2018-Jun-25 06:31N 48°17' W 004°35'0 0.0
2018-Jun-25 06:01N 48°17' W 004°35'0 0.0
2018-Jun-25 05:30N 48°17' W 004°35'0 0.0
2018-Jun-25 05:01N 48°17' W 004°35'0 0.0
2018-Jun-25 04:31N 48°17' W 004°35'0 0.0
2018-Jun-25 04:00N 48°17' W 004°35'0 0.0
2018-Jun-25 03:31N 48°17' W 004°35'0 0.0
2018-Jun-25 03:00N 48°17' W 004°35'0 0.0
2018-Jun-25 02:31N 48°17' W 004°35'0 0.0
2018-Jun-25 02:01N 48°17' W 004°35'0 0.0
2018-Jun-25 01:31N 48°17' W 004°35'0 0.0
2018-Jun-25 01:01N 48°17' W 004°35'0 0.0
2018-Jun-25 00:30N 48°17' W 004°35'0 0.0
2018-Jun-25 00:01N 48°17' W 004°35'0 0.0
2018-Jun-24 23:31N 48°17' W 004°35'0 0.0
2018-Jun-24 22:58N 48°17' W 004°35'0 0.0
2018-Jun-24 22:30N 48°17' W 004°35'0 0.0
2018-Jun-24 22:01N 48°17' W 004°35'0 0.0
2018-Jun-24 21:30N 48°17' W 004°35'0 0.0
2018-Jun-24 21:00N 48°17' W 004°35'0 0.0
2018-Jun-24 20:30N 48°17' W 004°35'0 0.0
2018-Jun-24 20:01N 48°17' W 004°35'0 0.0
2018-Jun-24 19:31N 48°17' W 004°35'0 0.0
2018-Jun-24 19:01N 48°17' W 004°35'1 2.2
2018-Jun-24 18:31N 48°17' W 004°37'2 4.6
2018-Jun-24 18:00N 48°18' W 004°40'2 4.3
2018-Jun-24 17:31N 48°18' W 004°43'2 4.1
2018-Jun-24 17:01N 48°19' W 004°46'7 8.2
2018-Jun-24 16:07N 48°26' W 004°50'1 7.1
2018-Jun-24 16:00N 48°27' W 004°50'3 7.1
2018-Jun-24 15:31N 48°30' W 004°49'3 6.0
2018-Jun-24 15:00N 48°33' W 004°49'2 4.7
2018-Jun-24 14:30N 48°35' W 004°48'2 3.1
2018-Jun-24 14:01N 48°36' W 004°46'2 4.4
2018-Jun-24 13:31N 48°37' W 004°43'2 4.6
2018-Jun-24 12:59N 48°37' W 004°39'17 0.9
2018-Jun-23 18:58N 48°47' W 004°19'61 4.6
2018-Jun-23 05:45N 49°27' W 003°07'3 5.8
2018-Jun-23 05:16N 49°29' W 003°04'3 5.5
2018-Jun-23 04:39N 49°31' W 002°60'1 5.2
2018-Jun-23 04:26N 49°32' W 002°58'2 5.0
2018-Jun-23 03:58N 49°33' W 002°56'3 4.9
2018-Jun-23 03:27N 49°35' W 002°52'15 5.0
2018-Jun-23 00:24N 49°42' W 002°32'3 6.6
2018-Jun-23 00:00N 49°44' W 002°29'4 7.3
2018-Jun-22 23:30N 49°45' W 002°24'4 8.3
2018-Jun-22 22:58N 49°46' W 002°17'21 9.2
2018-Jun-22 20:39N 49°45' W 001°44'2 8.8
2018-Jun-22 20:24N 49°45' W 001°40'3 8.5
2018-Jun-22 20:00N 49°45' W 001°35'6 8.3
2018-Jun-22 19:16N 49°46' W 001°26'2 7.9
2018-Jun-22 19:00N 49°46' W 001°23'7 5.6
2018-Jun-22 17:43N 49°49' W 001°12'4 4.8
2018-Jun-22 16:54N 49°51' W 001°07'2 4.1
2018-Jun-22 16:29N 49°52' W 001°05'2 4.0
2018-Jun-22 16:00N 49°53' W 001°02'2 3.6
2018-Jun-22 15:30N 49°54' W 001°00'2 3.7
2018-Jun-22 14:59N 49°56' W 000°58'2 4.3
2018-Jun-22 14:28N 49°57' W 000°55'2 4.7
2018-Jun-22 14:00N 49°58' W 000°52'27 7.0
2018-Jun-22 10:12N 50°06' W 000°13'1 7.7
2018-Jun-22 10:00N 50°07' W 000°11'4 7.7
2018-Jun-22 09:30N 50°08' W 000°05'90 5.1
2018-Jun-21 16:03N 51°01' E 001°49'1 5.0
2018-Jun-21 15:49N 51°01' E 001°51'3 6.2
2018-Jun-21 15:22N 51°02' E 001°55'3 7.6
2018-Jun-21 14:59N 51°03' E 001°60'4 7.7
2018-Jun-21 14:31N 51°03' E 002°05'4 7.9
2018-Jun-21 13:59N 51°04' E 002°12'4 8.2
2018-Jun-21 13:29N 51°04' E 002°18'5 8.3
2018-Jun-21 12:53N 51°05' E 002°26'3 7.4
2018-Jun-21 12:28N 51°06' E 002°30'3 7.4
2018-Jun-21 12:00N 51°09' E 002°34'4 7.3
2018-Jun-21 11:30N 51°11' E 002°39'4 7.3
2018-Jun-21 10:58N 51°12' E 002°45'3 6.3
2018-Jun-21 10:29N 51°14' E 002°49'3 5.6
2018-Jun-21 09:59N 51°14' E 002°53'1 2.7
2018-Jun-21 09:30N 51°14' E 002°55'0 0.1
2018-Jun-21 08:49N 51°14' E 002°55'0 0.0
2018-Jun-21 08:07N 51°14' E 002°55'0 0.0
2018-Jun-21 08:00N 51°14' E 002°55'0 0.0
2018-Jun-21 07:27N 51°14' E 002°55'0 0.0
2018-Jun-21 05:43N 51°14' E 002°55'0 0.0
2018-Jun-21 05:31N 51°14' E 002°55'0 0.0
2018-Jun-21 03:49N 51°14' E 002°55'0 0.0
2018-Jun-21 03:25N 51°14' E 002°55'0 0.0
2018-Jun-21 03:00N 51°14' E 002°55'0 0.0
2018-Jun-21 02:25N 51°14' E 002°55'0 0.0
2018-Jun-21 01:54N 51°14' E 002°55'0 0.0
2018-Jun-21 01:31N 51°14' E 002°55'0 0.0
2018-Jun-21 01:00N 51°14' E 002°55'0 0.0
2018-Jun-21 00:27N 51°14' E 002°55'0 0.0
2018-Jun-20 23:45N 51°14' E 002°55'0 0.0
2018-Jun-20 23:28N 51°14' E 002°55'0 0.0
2018-Jun-20 22:54N 51°14' E 002°55'0 0.0
2018-Jun-20 22:25N 51°14' E 002°55'0 0.0
2018-Jun-20 22:00N 51°14' E 002°55'0 0.0
2018-Jun-20 21:27N 51°14' E 002°55'0 0.0
2018-Jun-20 21:01N 51°14' E 002°55'0 0.0
2018-Jun-20 20:25N 51°14' E 002°55'0 0.0
2018-Jun-20 19:58N 51°14' E 002°55'0 0.0
2018-Jun-20 19:19N 51°14' E 002°55'0 0.0
2018-Jun-20 19:00N 51°14' E 002°55'0 0.0
2018-Jun-20 18:25N 51°14' E 002°55'0 0.0
2018-Jun-20 17:55N 51°14' E 002°55'1 2.8
2018-Jun-20 17:29N 51°15' E 002°56'1 2.7
2018-Jun-20 16:59N 51°16' E 002°58'1 2.3
2018-Jun-20 16:28N 51°17' E 002°59'7 3.7
2018-Jun-20 14:29N 51°21' E 003°09'2 4.6
2018-Jun-20 13:57N 51°22' E 003°12'2 4.8
2018-Jun-20 13:27N 51°23' E 003°16'3 5.2
2018-Jun-20 12:54N 51°23' E 003°20'2 5.2
2018-Jun-20 12:30N 51°24' E 003°24'3 6.2
2018-Jun-20 12:00N 51°25' E 003°28'3 6.8
2018-Jun-20 11:29N 51°26' E 003°34'2 3.3
2018-Jun-20 11:00N 51°27' E 003°36'0 0.3
2018-Jun-20 09:45N 51°27' E 003°35'0 0.0
2018-Jun-20 09:21N 51°27' E 003°35'0 0.0
2018-Jun-20 08:42N 51°27' E 003°35'0 0.0
2018-Jun-20 08:21N 51°27' E 003°35'0 0.0
2018-Jun-20 08:00N 51°27' E 003°35'0 0.0
2018-Jun-20 07:24N 51°27' E 003°35'0 0.0
2018-Jun-20 06:57N 51°27' E 003°35'0 0.0
2018-Jun-19 20:37N 51°27' E 003°35'0 0.0
2018-Jun-19 20:07N 51°27' E 003°35'0 0.0
2018-Jun-19 19:58N 51°27' E 003°35'0 0.0
2018-Jun-19 19:01N 51°27' E 003°35'0 0.0
2018-Jun-19 18:31N 51°27' E 003°35'0 0.0
2018-Jun-19 18:28N 51°27' E 003°35'0 0.0
2018-Jun-19 17:58N 51°27' E 003°35'0 0.0
2018-Jun-19 17:28N 51°27' E 003°35'0 0.0
2018-Jun-19 16:55N 51°27' E 003°35'0 0.0
2018-Jun-19 14:16N 51°27' E 003°35'0 0.0
2018-Jun-19 12:40N 51°27' E 003°35'0 0.0
2018-Jun-19 11:40N 51°27' E 003°35'0 0.0
2018-Jun-19 11:22N 51°27' E 003°35'0 0.0
2018-Jun-19 10:34N 51°27' E 003°35'0 0.0
2018-Jun-19 10:13N 51°27' E 003°35'0 0.0
2018-Jun-19 09:46N 51°27' E 003°35'  
Track history (hours):
 
Tides and Currents Weather Stations Pressure Air Temp Water Temp Dewpoint Dewpoint Depression Visibility Wind Speed Wind Dir Waves Ship Positions

Archimedes

Last reported at 2018-Jun-25 13:58 UTC. Time now 2018-Jun-25 14:15 UTC.
Position N 48°01' W 005°01'.

Length 12 m; draft 2.6 m.

Type: Ship. MMSI: 244690005.

Date/timePositionNaut miles runAvg speedWind from/ knotsBaromVisibWave heightAir tempDewpointWater temp
2018-Jun-25 13:58N 48°01' W 005°01'7 5.4
2018-Jun-25 12:44N 48°06' W 004°55'3 5.2
2018-Jun-25 12:08N 48°08' W 004°52'1 4.7
2018-Jun-25 11:58N 48°09' W 004°51'2 4.7
2018-Jun-25 11:31N 48°11' W 004°49'2 4.9
2018-Jun-25 11:01N 48°12' W 004°47'2 4.9
2018-Jun-25 10:31N 48°14' W 004°44'3 5.0
2018-Jun-25 10:00N 48°15' W 004°41'2 4.3
2018-Jun-25 09:31N 48°17' W 004°39'2 4.3
2018-Jun-25 09:01N 48°17' W 004°35'0 0.8
2018-Jun-25 08:27N 48°17' W 004°35'0 0.0
2018-Jun-25 08:00N 48°17' W 004°35'0 0.0
2018-Jun-25 07:30N 48°17' W 004°35'0 0.0
2018-Jun-25 07:01N 48°17' W 004°35'0 0.0
2018-Jun-25 06:31N 48°17' W 004°35'0 0.0
2018-Jun-25 06:01N 48°17' W 004°35'0 0.0
2018-Jun-25 05:30N 48°17' W 004°35'0 0.0
2018-Jun-25 05:01N 48°17' W 004°35'0 0.0
2018-Jun-25 04:31N 48°17' W 004°35'0 0.0
2018-Jun-25 04:00N 48°17' W 004°35'0 0.0
2018-Jun-25 03:31N 48°17' W 004°35'0 0.0
2018-Jun-25 03:00N 48°17' W 004°35'0 0.0
2018-Jun-25 02:31N 48°17' W 004°35'0 0.0
2018-Jun-25 02:01N 48°17' W 004°35'0 0.0
2018-Jun-25 01:31N 48°17' W 004°35'0 0.0
2018-Jun-25 01:01N 48°17' W 004°35'0 0.0
2018-Jun-25 00:30N 48°17' W 004°35'0 0.0
2018-Jun-25 00:01N 48°17' W 004°35'0 0.0
2018-Jun-24 23:31N 48°17' W 004°35'0 0.0
2018-Jun-24 22:58N 48°17' W 004°35'0 0.0
2018-Jun-24 22:30N 48°17' W 004°35'0 0.0
2018-Jun-24 22:01N 48°17' W 004°35'0 0.0
2018-Jun-24 21:30N 48°17' W 004°35'0 0.0
2018-Jun-24 21:00N 48°17' W 004°35'0 0.0
2018-Jun-24 20:30N 48°17' W 004°35'0 0.0
2018-Jun-24 20:01N 48°17' W 004°35'0 0.0
2018-Jun-24 19:31N 48°17' W 004°35'0 0.0
2018-Jun-24 19:01N 48°17' W 004°35'1 2.2
2018-Jun-24 18:31N 48°17' W 004°37'2 4.6
2018-Jun-24 18:00N 48°18' W 004°40'2 4.3
2018-Jun-24 17:31N 48°18' W 004°43'2 4.1
2018-Jun-24 17:01N 48°19' W 004°46'7 8.2
2018-Jun-24 16:07N 48°26' W 004°50'1 7.1
2018-Jun-24 16:00N 48°27' W 004°50'3 7.1
2018-Jun-24 15:31N 48°30' W 004°49'3 6.0
2018-Jun-24 15:00N 48°33' W 004°49'2 4.7
2018-Jun-24 14:30N 48°35' W 004°48'2 3.1
2018-Jun-24 14:01N 48°36' W 004°46'2 4.4
2018-Jun-24 13:31N 48°37' W 004°43'2 4.6
2018-Jun-24 12:59N 48°37' W 004°39'17 0.9
2018-Jun-23 18:58N 48°47' W 004°19'61 4.6
2018-Jun-23 05:45N 49°27' W 003°07'3 5.8
2018-Jun-23 05:16N 49°29' W 003°04'3 5.5
2018-Jun-23 04:39N 49°31' W 002°60'1 5.2
2018-Jun-23 04:26N 49°32' W 002°58'2 5.0
2018-Jun-23 03:58N 49°33' W 002°56'3 4.9
2018-Jun-23 03:27N 49°35' W 002°52'15 5.0
2018-Jun-23 00:24N 49°42' W 002°32'3 6.6
2018-Jun-23 00:00N 49°44' W 002°29'4 7.3
2018-Jun-22 23:30N 49°45' W 002°24'4 8.3
2018-Jun-22 22:58N 49°46' W 002°17'21 9.2
2018-Jun-22 20:39N 49°45' W 001°44'2 8.8
2018-Jun-22 20:24N 49°45' W 001°40'3 8.5
2018-Jun-22 20:00N 49°45' W 001°35'6 8.3
2018-Jun-22 19:16N 49°46' W 001°26'2 7.9
2018-Jun-22 19:00N 49°46' W 001°23'7 5.6
2018-Jun-22 17:43N 49°49' W 001°12'4 4.8
2018-Jun-22 16:54N 49°51' W 001°07'2 4.1
2018-Jun-22 16:29N 49°52' W 001°05'2 4.0
2018-Jun-22 16:00N 49°53' W 001°02'2 3.6
2018-Jun-22 15:30N 49°54' W 001°00'2 3.7
2018-Jun-22 14:59N 49°56' W 000°58'2 4.3
2018-Jun-22 14:28N 49°57' W 000°55'2 4.7
2018-Jun-22 14:00N 49°58' W 000°52'27 7.0
2018-Jun-22 10:12N 50°06' W 000°13'1 7.7
2018-Jun-22 10:00N 50°07' W 000°11'4 7.7
2018-Jun-22 09:30N 50°08' W 000°05'90 5.1
2018-Jun-21 16:03N 51°01' E 001°49'1 5.0
2018-Jun-21 15:49N 51°01' E 001°51'3 6.2
2018-Jun-21 15:22N 51°02' E 001°55'3 7.6
2018-Jun-21 14:59N 51°03' E 001°60'4 7.7
2018-Jun-21 14:31N 51°03' E 002°05'4 7.9
2018-Jun-21 13:59N 51°04' E 002°12'4 8.2
2018-Jun-21 13:29N 51°04' E 002°18'5 8.3
2018-Jun-21 12:53N 51°05' E 002°26'3 7.4
2018-Jun-21 12:28N 51°06' E 002°30'3 7.4
2018-Jun-21 12:00N 51°09' E 002°34'4 7.3
2018-Jun-21 11:30N 51°11' E 002°39'4 7.3
2018-Jun-21 10:58N 51°12' E 002°45'3 6.3
2018-Jun-21 10:29N 51°14' E 002°49'3 5.6
2018-Jun-21 09:59N 51°14' E 002°53'1 2.7
2018-Jun-21 09:30N 51°14' E 002°55'0 0.1
2018-Jun-21 08:49N 51°14' E 002°55'0 0.0
2018-Jun-21 08:07N 51°14' E 002°55'0 0.0
2018-Jun-21 08:00N 51°14' E 002°55'0 0.0
2018-Jun-21 07:27N 51°14' E 002°55'0 0.0
2018-Jun-21 05:43N 51°14' E 002°55'0 0.0
2018-Jun-21 05:31N 51°14' E 002°55'0 0.0
2018-Jun-21 03:49N 51°14' E 002°55'0 0.0
2018-Jun-21 03:25N 51°14' E 002°55'0 0.0
2018-Jun-21 03:00N 51°14' E 002°55'0 0.0
2018-Jun-21 02:25N 51°14' E 002°55'0 0.0
2018-Jun-21 01:54N 51°14' E 002°55'0 0.0
2018-Jun-21 01:31N 51°14' E 002°55'0 0.0
2018-Jun-21 01:00N 51°14' E 002°55'0 0.0
2018-Jun-21 00:27N 51°14' E 002°55'0 0.0
2018-Jun-20 23:45N 51°14' E 002°55'0 0.0
2018-Jun-20 23:28N 51°14' E 002°55'0 0.0
2018-Jun-20 22:54N 51°14' E 002°55'0 0.0
2018-Jun-20 22:25N 51°14' E 002°55'0 0.0
2018-Jun-20 22:00N 51°14' E 002°55'0 0.0
2018-Jun-20 21:27N 51°14' E 002°55'0 0.0
2018-Jun-20 21:01N 51°14' E 002°55'0 0.0
2018-Jun-20 20:25N 51°14' E 002°55'0 0.0
2018-Jun-20 19:58N 51°14' E 002°55'0 0.0
2018-Jun-20 19:19N 51°14' E 002°55'0 0.0
2018-Jun-20 19:00N 51°14' E 002°55'0 0.0
2018-Jun-20 18:25N 51°14' E 002°55'0 0.0
2018-Jun-20 17:55N 51°14' E 002°55'1 2.8
2018-Jun-20 17:29N 51°15' E 002°56'1 2.7
2018-Jun-20 16:59N 51°16' E 002°58'1 2.3
2018-Jun-20 16:28N 51°17' E 002°59'7 3.7
2018-Jun-20 14:29N 51°21' E 003°09'2 4.6
2018-Jun-20 13:57N 51°22' E 003°12'2 4.8
2018-Jun-20 13:27N 51°23' E 003°16'3 5.2
2018-Jun-20 12:54N 51°23' E 003°20'2 5.2
2018-Jun-20 12:30N 51°24' E 003°24'3 6.2
2018-Jun-20 12:00N 51°25' E 003°28'3 6.8
2018-Jun-20 11:29N 51°26' E 003°34'2 3.3
2018-Jun-20 11:00N 51°27' E 003°36'0 0.3
2018-Jun-20 09:45N 51°27' E 003°35'0 0.0
2018-Jun-20 09:21N 51°27' E 003°35'0 0.0
2018-Jun-20 08:42N 51°27' E 003°35'0 0.0
2018-Jun-20 08:21N 51°27' E 003°35'0 0.0
2018-Jun-20 08:00N 51°27' E 003°35'0 0.0
2018-Jun-20 07:24N 51°27' E 003°35'0 0.0
2018-Jun-20 06:57N 51°27' E 003°35'0 0.0
2018-Jun-19 20:37N 51°27' E 003°35'0 0.0
2018-Jun-19 20:07N 51°27' E 003°35'0 0.0
2018-Jun-19 19:58N 51°27' E 003°35'0 0.0
2018-Jun-19 19:01N 51°27' E 003°35'0 0.0
2018-Jun-19 18:31N 51°27' E 003°35'0 0.0
2018-Jun-19 18:28N 51°27' E 003°35'0 0.0
2018-Jun-19 17:58N 51°27' E 003°35'0 0.0
2018-Jun-19 17:28N 51°27' E 003°35'0 0.0
2018-Jun-19 16:55N 51°27' E 003°35'0 0.0
2018-Jun-19 14:16N 51°27' E 003°35'0 0.0
2018-Jun-19 12:40N 51°27' E 003°35'0 0.0
2018-Jun-19 11:40N 51°27' E 003°35'0 0.0
2018-Jun-19 11:22N 51°27' E 003°35'0 0.0
2018-Jun-19 10:34N 51°27' E 003°35'0 0.0
2018-Jun-19 10:13N 51°27' E 003°35'0 0.0
2018-Jun-19 09:46N 51°27' E 003°35'  

Dump ship's entire track history